Time;durP1;ratioP1;P1;durP2;ratioP2;P2;SDS_P1;SDS_P2;PMS_P1;PMS_P2;Temp;Humidity;BMP_temperature;BMP_pressure;BME280_temperature;BME280_humidity;BME280_pressure;Samples;Min_cycle;Max_cycle;Signal;HPM_P1;HPM_P2
2023/04/19 00:02:01;;;;;;;1999.90;999.90;;;;;;;8.87;100.00;94858.69;4969333;28;20200;-59
2023/04/19 00:04:26;;;;;;;1999.90;999.90;;;;;;;8.92;100.00;94850.06;4985355;28;20196;-59
2023/04/19 00:06:52;;;;;;;1999.90;999.90;;;;;;;8.85;100.00;94844.69;4969022;28;20207;-58
2023/04/19 00:09:18;;;;;;;1999.90;999.90;;;;;;;8.91;100.00;94837.66;4985029;28;20196;-58
2023/04/19 00:11:43;;;;;;;1999.90;999.90;;;;;;;8.91;100.00;94836.88;4969007;28;20197;-58
2023/04/19 00:14:08;;;;;;;1999.90;999.90;;;;;;;8.83;100.00;94828.00;4968985;28;20196;-59
2023/04/19 00:16:34;;;;;;;1999.90;999.90;;;;;;;8.81;100.00;94818.69;4969134;28;20239;-59
2023/04/19 00:19:00;;;;;;;1999.90;999.90;;;;;;;8.79;100.00;94808.22;4969286;28;20201;-58
2023/04/19 00:21:26;;;;;;;1999.90;999.90;;;;;;;8.86;100.00;94808.13;4968614;28;20200;-59
2023/04/19 00:23:52;;;;;;;1999.90;999.90;;;;;;;8.82;100.00;94807.41;4968446;28;20244;-59
2023/04/19 00:26:18;;;;;;;1999.90;999.90;;;;;;;8.80;100.00;94809.78;4968546;28;20208;-58
2023/04/19 00:28:43;;;;;;;1999.90;999.90;;;;;;;8.86;100.00;94813.56;4984466;28;20212;-59
2023/04/19 00:31:09;;;;;;;1999.90;999.90;;;;;;;8.79;100.00;94808.22;4975087;28;20196;-59
2023/04/19 00:33:34;;;;;;;1999.90;999.90;;;;;;;8.80;100.00;94812.50;4975140;28;20224;-59
2023/04/19 00:35:59;;;;;;;1999.90;999.90;;;;;;;8.85;100.00;94817.47;4991585;28;20215;-59
2023/04/19 00:38:25;;;;;;;1999.90;999.90;;;;;;;8.86;100.00;94804.66;4991088;28;20199;-60
2023/04/19 00:40:50;;;;;;;1999.90;999.90;;;;;;;8.80;100.00;94815.22;4975347;28;20272;-59
2023/04/19 00:43:17;;;;;;;1999.90;999.90;;;;;;;8.85;100.00;94803.88;4975242;28;20270;-59
2023/04/19 00:45:43;;;;;;;1999.90;999.90;;;;;;;8.81;100.00;94810.53;4975140;28;20222;-59
2023/04/19 00:48:08;;;;;;;1999.90;999.90;;;;;;;8.86;100.00;94805.41;4974875;28;20200;-59
2023/04/19 00:50:34;;;;;;;1999.90;999.90;;;;;;;8.86;100.00;94802.69;4990971;28;20202;-59
2023/04/19 00:53:01;;;;;;;1999.90;999.90;;;;;;;8.80;100.00;94817.94;4991036;28;20176;-59
2023/04/19 00:55:26;;;;;;;1999.90;999.90;;;;;;;8.79;100.00;94819.13;4974675;28;20196;-59
2023/04/19 00:57:52;;;;;;;1999.90;999.90;;;;;;;8.83;100.00;94825.28;4975242;28;20208;-59
2023/04/19 01:00:18;;;;;;;1999.90;999.90;;;;;;;8.72;100.00;94819.19;4974755;28;20204;-58
2023/04/19 01:02:44;;;;;;;1999.90;999.90;;;;;;;8.65;100.00;94813.81;4991174;28;20204;-58
2023/04/19 01:05:09;;;;;;;1999.90;999.90;;;;;;;8.66;100.00;94809.91;4991140;28;20207;-58
2023/04/19 01:07:35;;;;;;;1999.90;999.90;;;;;;;8.66;100.00;94815.34;4992471;28;20258;-58
2023/04/19 01:10:00;;;;;;;1999.90;999.90;;;;;;;8.66;100.00;94815.34;4990829;28;20250;-58
2023/04/19 01:12:26;;;;;;;1999.90;999.90;;;;;;;8.67;100.00;94811.44;4974472;28;20224;-59
2023/04/19 01:14:51;;;;;;;1999.90;999.90;;;;;;;8.66;100.00;94804.47;4974679;28;20196;-58
2023/04/19 01:17:18;;;;;;;1999.90;999.90;;;;;;;8.75;100.00;94807.47;4990768;28;20259;-58
2023/04/19 01:19:44;;;;;;;1999.90;999.90;;;;;;;8.72;100.00;94797.41;4991036;28;20188;-58
2023/04/19 01:22:09;;;;;;;1999.90;999.90;;;;;;;8.71;100.00;94800.53;4974781;28;20199;-58
2023/04/19 01:24:34;;;;;;;1999.90;999.90;;;;;;;8.55;100.00;94798.38;4974863;28;20173;-58
2023/04/19 01:27:01;;;;;;;1999.90;999.90;;;;;;;8.64;100.00;94793.19;4974590;28;20211;-58
2023/04/19 01:29:29;;;;;;;1999.90;999.90;;;;;;;8.59;100.00;94796.38;4975252;28;20199;-60
2023/04/19 01:31:54;;;;;;;1999.90;999.90;;;;;;;8.63;100.00;94793.63;4990418;28;20196;-59
2023/04/19 01:34:21;;;;;;;1999.90;999.90;;;;;;;8.62;100.00;94787.41;4974867;28;20192;-58
2023/04/19 01:36:47;;;;;;;1999.90;999.90;;;;;;;8.69;100.00;94787.34;4990409;28;20208;-59
2023/04/19 01:39:12;;;;;;;1999.90;999.90;;;;;;;8.64;100.00;94778.84;4974448;28;20227;-59
2023/04/19 01:41:38;;;;;;;1999.90;999.90;;;;;;;8.67;100.00;94780.75;4971841;28;20192;-58
2023/04/19 01:44:03;;;;;;;1999.90;999.90;;;;;;;8.66;100.00;94779.97;4971566;28;20252;-58
2023/04/19 01:46:29;;;;;;;1999.90;999.90;;;;;;;8.65;100.00;94778.44;4987658;28;20196;-59
2023/04/19 01:48:54;;;;;;;1999.90;999.90;;;;;;;8.65;100.00;94775.72;4987636;28;20192;-59
2023/04/19 01:51:20;;;;;;;1999.90;999.90;;;;;;;8.56;100.00;94780.09;4971426;28;20219;-59
2023/04/19 01:53:51;;;;;;;1999.90;999.90;;;;;;;8.63;100.00;94759.00;4988173;28;20177;-59
2023/04/19 01:56:16;;;;;;;1999.90;999.90;;;;;;;8.66;100.00;94751.97;4988163;28;20216;-59
2023/04/19 01:58:42;;;;;;;1999.90;999.90;;;;;;;8.62;100.00;94754.75;4971352;28;20260;-59
2023/04/19 02:01:11;;;;;;;1999.90;999.90;;;;;;;8.57;100.00;94738.88;4987197;28;20268;-59
2023/04/19 02:03:36;;;;;;;1999.90;999.90;;;;;;;8.47;100.00;94632.88;4971717;28;20272;-59
2023/04/19 02:06:02;;;;;;;1999.90;999.90;;;;;;;8.52;100.00;94597.06;4971137;28;20197;-58
2023/04/19 02:08:27;;;;;;;1999.90;999.90;;;;;;;8.54;100.00;94573.72;4971173;28;20196;-58
2023/04/19 02:10:52;;;;;;;1999.90;999.90;;;;;;;8.55;100.00;94550.75;4971172;28;20227;-58
2023/04/19 02:13:18;;;;;;;1999.90;999.90;;;;;;;8.56;100.00;94538.69;4971196;28;20252;-59
2023/04/19 02:15:43;;;;;;;1999.90;999.90;;;;;;;8.58;100.00;94509.13;4970926;28;20219;-61
2023/04/19 02:18:08;;;;;;;1999.90;999.90;;;;;;;8.58;100.00;94498.25;4970804;28;20188;-60
2023/04/19 02:20:34;;;;;;;1999.90;999.90;;;;;;;8.52;100.00;94478.09;4970701;28;20199;-63
2023/04/19 02:22:59;;;;;;;1999.90;999.90;;;;;;;8.43;100.00;94460.78;4987519;28;20169;-60
2023/04/19 02:25:25;;;;;;;1999.90;999.90;;;;;;;8.48;100.00;94443.97;4971246;28;20219;-59
2023/04/19 02:27:50;;;;;;;1999.90;999.90;;;;;;;8.41;100.00;94423.09;4970849;28;20201;-59
2023/04/19 02:30:15;;;;;;;1999.90;999.90;;;;;;;8.46;100.00;94395.44;4986813;28;20228;-59
2023/04/19 02:32:41;;;;;;;1999.90;999.90;;;;;;;8.45;100.00;94374.84;4970430;28;20211;-59
2023/04/19 02:35:07;;;;;;;1999.90;999.90;;;;;;;8.50;100.00;94354.56;4970424;28;20200;-59
2023/04/19 02:37:32;;;;;;;1999.90;999.90;;;;;;;8.46;100.00;94338.31;4986811;28;20212;-59
2023/04/19 02:39:57;;;;;;;1999.90;999.90;;;;;;;8.46;100.00;94326.66;4986670;28;20207;-59
2023/04/19 02:42:23;;;;;;;1999.90;999.90;;;;;;;8.37;100.00;94313.59;4986452;28;20292;-59
2023/04/19 02:44:48;;;;;;;1999.90;999.90;;;;;;;8.33;100.00;94298.50;4970481;28;20247;-60
2023/04/19 02:47:13;;;;;;;1999.90;999.90;;;;;;;8.31;100.00;94276.41;4970725;28;20207;-59
2023/04/19 02:49:40;;;;;;;1999.90;999.90;;;;;;;8.36;100.00;94267.75;4986655;28;20308;-59
2023/04/19 02:52:06;;;;;;;1999.90;999.90;;;;;;;8.32;100.00;94258.91;4986649;28;20269;-60
2023/04/19 02:54:32;;;;;;;1999.90;999.90;;;;;;;8.34;100.00;94260.00;4986570;28;20176;-59
2023/04/19 02:56:57;;;;;;;1999.90;999.90;;;;;;;8.36;100.00;94238.63;4970218;28;20227;-59
2023/04/19 02:59:23;;;;;;;1999.90;999.90;;;;;;;8.33;100.00;94225.06;4986354;28;20238;-59
2023/04/19 03:01:48;;;;;;;1999.90;999.90;;;;;;;8.31;100.00;94211.88;4986462;28;20318;-60
2023/04/19 03:04:13;;;;;;;1999.90;999.90;;;;;;;8.41;100.00;94188.41;4970049;28;20197;-59
2023/04/19 03:06:40;;;;;;;1999.90;999.90;;;;;;;8.46;100.00;94179.75;4969850;28;20211;-59
2023/04/19 03:09:06;;;;;;;1999.90;999.90;;;;;;;8.40;100.00;94174.03;4969893;28;20213;-59
2023/04/19 03:11:31;;;;;;;1999.90;999.90;;;;;;;8.31;100.00;94160.22;4969866;28;20196;-60
2023/04/19 03:13:56;;;;;;;1999.90;999.90;;;;;;;8.33;100.00;94157.06;4986458;28;20201;-58
2023/04/19 03:16:22;;;;;;;1999.90;999.90;;;;;;;8.34;100.00;94145.78;4969836;28;20215;-58
2023/04/19 03:18:47;;;;;;;1999.90;999.90;;;;;;;8.38;100.00;94124.72;4969944;28;20219;-58
2023/04/19 03:21:12;;;;;;;1999.90;999.90;;;;;;;8.36;100.00;94115.44;4969964;28;20234;-59
2023/04/19 03:23:37;;;;;;;1999.90;999.90;;;;;;;8.35;100.00;94109.25;4969881;28;20227;-59
2023/04/19 03:26:03;;;;;;;1999.90;999.90;;;;;;;8.33;100.00;94098.03;4969494;28;20215;-59
2023/04/19 03:28:29;;;;;;;1999.90;999.90;;;;;;;8.36;100.00;94094.47;4985722;28;20220;-62
2023/04/19 03:30:54;;;;;;;1999.90;999.90;;;;;;;8.40;100.00;94094.38;4969763;28;20198;-60
2023/04/19 03:33:19;;;;;;;1999.90;999.90;;;;;;;8.25;100.00;94096.66;4969302;28;20211;-60
2023/04/19 03:35:45;;;;;;;1999.90;999.90;;;;;;;8.31;100.00;94081.34;4969074;28;20200;-61
2023/04/19 03:38:10;;;;;;;1999.90;999.90;;;;;;;8.25;100.00;94082.28;4969301;28;20192;-61
2023/04/19 03:40:37;;;;;;;1999.90;999.90;;;;;;;8.29;100.00;94078.28;4985387;28;20192;-61
2023/04/19 03:43:02;;;;;;;1999.90;999.90;;;;;;;8.33;100.00;94072.78;4985347;28;20496;-61
2023/04/19 03:45:27;;;;;;;1999.90;999.90;;;;;;;8.18;100.00;94072.28;4985323;28;20230;-61
2023/04/19 03:47:53;;;;;;;1999.90;999.90;;;;;;;8.26;100.00;94068.25;4969411;28;20192;-61
2023/04/19 03:50:18;;;;;;;1999.90;999.90;;;;;;;8.15;100.00;94075.06;4969368;28;20211;-61
2023/04/19 03:52:43;;;;;;;1999.90;999.90;;;;;;;8.17;100.00;94076.19;4969382;28;20212;-61
2023/04/19 03:55:11;;;;;;;1999.90;999.90;;;;;;;8.25;100.00;94072.16;4985278;28;20193;-60
2023/04/19 03:57:37;;;;;;;1999.90;999.90;;;;;;;8.22;100.00;94070.28;4969010;28;20193;-61
2023/04/19 04:00:06;;;;;;;1999.90;999.90;;;;;;;8.21;100.00;94071.47;4985311;28;20203;-61
2023/04/19 04:02:31;;;;;;;1999.90;999.90;;;;;;;8.16;100.00;94077.34;4985465;28;20270;-61
2023/04/19 04:04:57;;;;;;;1999.90;999.90;;;;;;;8.18;100.00;94069.56;4968516;28;20203;-61
2023/04/19 04:07:23;;;;;;;1999.90;999.90;;;;;;;8.21;100.00;94071.47;4984932;28;20207;-61
2023/04/19 04:09:49;;;;;;;1999.90;999.90;;;;;;;8.19;100.00;94062.94;4985062;28;20238;-61
2023/04/19 04:12:14;;;;;;;1999.90;999.90;;;;;;;8.19;100.00;94071.09;4985995;28;20196;-61
2023/04/19 04:14:40;;;;;;;1999.90;999.90;;;;;;;8.23;100.00;94071.06;4968877;28;20196;-61
2023/04/19 04:17:05;;;;;;;1999.90;999.90;;;;;;;8.22;100.00;94073.00;4968861;28;20220;-60
2023/04/19 04:19:30;;;;;;;1999.90;999.90;;;;;;;8.23;100.00;94071.81;4985124;28;20199;-61
2023/04/19 04:21:56;;;;;;;1999.90;999.90;;;;;;;8.29;100.00;94064.69;4968672;28;20208;-61
2023/04/19 04:24:22;;;;;;;1999.90;999.90;;;;;;;8.32;100.00;94066.59;4968876;28;20204;-60
2023/04/19 04:26:48;;;;;;;1999.90;999.90;;;;;;;8.26;100.00;94062.81;4966672;28;20203;-61
2023/04/19 04:29:14;;;;;;;1999.90;999.90;;;;;;;8.30;100.00;94051.88;4969383;28;20203;-61
2023/04/19 04:31:40;;;;;;;1999.90;999.90;;;;;;;8.34;100.00;94053.31;4968618;28;20267;-61
2023/04/19 04:34:05;;;;;;;1999.90;999.90;;;;;;;8.31;100.00;94054.16;4968416;28;20210;-60
2023/04/19 04:36:30;;;;;;;1999.90;999.90;;;;;;;8.28;100.00;94055.00;4968343;28;20212;-61
2023/04/19 04:38:56;;;;;;;1999.90;999.90;;;;;;;8.27;100.00;94058.91;4984757;28;20200;-61
2023/04/19 04:41:21;;;;;;;1999.90;999.90;;;;;;;8.29;100.00;94056.53;4968677;28;20196;-59
2023/04/19 04:43:50;;;;;;;1999.90;999.90;;;;;;;8.20;100.00;94059.03;4984870;28;20196;-60
2023/04/19 04:46:15;;;;;;;1999.90;999.90;;;;;;;8.24;100.00;94059.75;4968214;28;20195;-59
2023/04/19 04:48:40;;;;;;;1999.90;999.90;;;;;;;8.23;100.00;94052.78;4968447;28;20259;-60
2023/04/19 04:51:06;;;;;;;1999.90;999.90;;;;;;;8.12;100.00;94052.19;4968415;28;20200;-61
2023/04/19 04:53:31;;;;;;;1999.90;999.90;;;;;;;8.14;100.00;94044.41;4984442;28;20223;-61
2023/04/19 04:55:57;;;;;;;1999.90;999.90;;;;;;;8.24;100.00;94042.69;4968275;28;20188;-61
2023/04/19 04:58:22;;;;;;;1999.90;999.90;;;;;;;8.22;100.00;94043.09;4984751;28;20191;-62
2023/04/19 05:00:47;;;;;;;1999.90;999.90;;;;;;;8.17;100.00;94038.13;4968245;28;20191;-63
2023/04/19 05:03:13;;;;;;;1999.90;999.90;;;;;;;8.19;100.00;94033.03;4968656;28;20216;-63
2023/04/19 05:05:39;;;;;;;1999.90;999.90;;;;;;;8.20;100.00;94023.66;4984502;28;20274;-62
2023/04/19 05:08:05;;;;;;;1999.90;999.90;;;;;;;8.30;100.00;94024.69;4984236;28;20243;-63
2023/04/19 05:10:30;;;;;;;1999.90;999.90;;;;;;;8.37;100.00;94014.41;4984585;28;20199;-62
2023/04/19 05:12:55;;;;;;;1999.90;999.90;;;;;;;8.31;100.00;94021.50;4984486;28;20192;-63
2023/04/19 05:15:21;;;;;;;1999.90;999.90;;;;;;;8.40;100.00;94016.28;4984289;28;20196;-63
2023/04/19 05:17:47;;;;;;;1999.90;999.90;;;;;;;8.30;100.00;94024.69;4986941;28;20212;-62
2023/04/19 05:20:12;;;;;;;1999.90;999.90;;;;;;;8.29;100.00;94026.63;4987955;28;20271;-61
2023/04/19 05:22:38;;;;;;;1999.90;999.90;;;;;;;8.28;100.00;94027.81;4988525;28;20195;-63
2023/04/19 05:25:04;;;;;;;1999.90;999.90;;;;;;;8.31;100.00;94032.41;4987662;28;20208;-63
2023/04/19 05:27:30;;;;;;;1999.90;999.90;;;;;;;8.34;100.00;94039.72;4987704;28;20188;-64
2023/04/19 05:29:55;;;;;;;1999.90;999.90;;;;;;;8.32;100.00;94036.66;4988146;28;20248;-63
2023/04/19 05:32:20;;;;;;;1999.90;999.90;;;;;;;8.39;100.00;94025.63;4988403;28;20200;-62
2023/04/19 05:34:46;;;;;;;1999.90;999.90;;;;;;;8.45;100.00;94037.53;4988026;28;20201;-64
2023/04/19 05:37:11;;;;;;;1999.90;999.90;;;;;;;8.30;100.00;94041.75;4987681;28;20227;-65
2023/04/19 05:39:36;;;;;;;1999.90;999.90;;;;;;;8.29;100.00;94042.94;4987727;28;20200;-65
2023/04/19 05:42:02;;;;;;;1999.90;999.90;;;;;;;8.32;100.00;94047.53;4987759;28;20204;-65
2023/04/19 05:44:27;;;;;;;1999.90;999.90;;;;;;;8.27;100.00;94053.47;4987462;28;20261;-64
2023/04/19 05:46:53;;;;;;;1999.90;999.90;;;;;;;8.30;100.00;94058.06;4971471;28;20271;-65
2023/04/19 05:49:18;;;;;;;1999.90;999.90;;;;;;;8.27;100.00;94063.59;4971618;28;20288;-64
2023/04/19 05:51:44;;;;;;;1999.90;999.90;;;;;;;8.40;100.00;94067.97;4987495;28;20192;-64
2023/04/19 05:54:11;;;;;;;1999.90;999.90;;;;;;;8.47;100.00;94067.81;4971308;28;20184;-64
2023/04/19 05:56:37;;;;;;;1999.90;999.90;;;;;;;8.41;100.00;94069.47;4971396;28;20238;-64
2023/04/19 05:59:02;;;;;;;1999.90;999.90;;;;;;;8.38;100.00;94078.47;4987402;28;20220;-64
2023/04/19 06:01:28;;;;;;;1999.90;999.90;;;;;;;8.48;100.00;94082.94;4987054;28;20239;-65
2023/04/19 06:03:53;;;;;;;1999.90;999.90;;;;;;;8.52;100.00;94085.59;4987660;28;20192;-64
2023/04/19 06:06:21;;;;;;;1999.90;999.90;;;;;;;8.49;100.00;94089.91;4987208;28;20200;-65
2023/04/19 06:08:46;;;;;;;1999.90;999.90;;;;;;;8.56;100.00;94099.88;4987261;28;20203;-64
2023/04/19 06:11:11;;;;;;;1999.90;999.90;;;;;;;8.65;100.00;94103.56;4987080;28;20376;-64
2023/04/19 06:13:37;;;;;;;1999.90;999.90;;;;;;;8.68;100.00;94105.44;4987034;28;20196;-64
2023/04/19 06:16:02;;;;;;;1999.90;999.90;;;;;;;8.68;100.00;94121.75;4987124;28;20204;-65
2023/04/19 06:18:27;;;;;;;1999.90;999.90;;;;;;;8.73;100.00;94123.19;4970883;28;20196;-65
2023/04/19 06:20:53;;;;;;;1999.90;999.90;;;;;;;8.45;100.00;94146.34;4986844;28;20196;-64
2023/04/19 06:23:19;;;;;;;1999.90;999.90;;;;;;;8.36;100.00;94173.34;4987340;28;20189;-64
2023/04/19 06:25:44;;;;;;;1999.90;999.90;;;;;;;8.42;100.00;94174.38;4986994;28;20204;-63
2023/04/19 06:28:10;;;;;;;1999.90;999.90;;;;;;;8.40;100.00;94187.63;4986781;28;20199;-65
2023/04/19 06:30:35;;;;;;;1999.90;999.90;;;;;;;8.38;100.00;94203.59;4987353;28;20256;-64
2023/04/19 06:33:01;;;;;;;1999.90;999.90;;;;;;;8.38;100.00;94217.19;4987007;28;20203;-65
2023/04/19 06:35:26;;;;;;;1999.90;999.90;;;;;;;8.40;100.00;94236.59;4986966;28;20204;-63
2023/04/19 06:37:51;;;;;;;1999.90;999.90;;;;;;;8.41;100.00;94243.56;4986601;28;20212;-63
2023/04/19 06:40:17;;;;;;;1999.90;999.90;;;;;;;8.50;100.00;94251.19;4986922;28;20200;-64
2023/04/19 06:42:42;;;;;;;1999.90;999.90;;;;;;;8.44;100.00;94269.16;4986356;28;20200;-64
2023/04/19 06:45:08;;;;;;;1999.90;999.90;;;;;;;8.47;100.00;94285.44;4986434;28;20267;-63
2023/04/19 06:47:34;;;;;;;1999.90;999.90;;;;;;;8.51;100.00;94290.78;4986318;28;20204;-63
2023/04/19 06:49:59;;;;;;;1999.90;999.90;;;;;;;8.59;100.00;94292.97;4986099;28;20212;-63
2023/04/19 06:52:25;;;;;;;1999.90;999.90;;;;;;;8.69;100.00;94300.19;4986799;28;20264;-63
2023/04/19 06:54:50;;;;;;;1999.90;999.90;;;;;;;8.67;100.00;94307.97;4970404;28;20196;-63
2023/04/19 06:57:17;;;;;;;1999.90;999.90;;;;;;;8.66;100.00;94314.63;4970252;28;20300;-63
2023/04/19 06:59:42;;;;;;;1999.90;999.90;;;;;;;8.74;100.00;94316.00;4986558;28;20203;-63
2023/04/19 07:02:08;;;;;;;1999.90;999.90;;;;;;;8.61;100.00;94339.59;4986542;28;20172;-64
2023/04/19 07:04:33;;;;;;;1999.90;999.90;;;;;;;8.62;100.00;94352.00;4970590;28;20207;-64
2023/04/19 07:06:59;;;;;;;1999.90;999.90;;;;;;;8.76;100.00;94357.19;4969934;28;20196;-64
2023/04/19 07:09:25;;;;;;;1999.90;999.90;;;;;;;8.68;100.00;94385.72;4970220;28;20204;-64
2023/04/19 07:11:50;;;;;;;1999.90;999.90;;;;;;;8.68;100.00;94410.22;4970190;28;20272;-64
2023/04/19 07:14:18;;;;;;;1999.90;999.90;;;;;;;8.73;100.00;94436.97;4986152;28;20271;-63
2023/04/19 07:16:44;;;;;;;1999.90;999.90;;;;;;;8.72;100.00;94484.41;4985873;28;20275;-62
2023/04/19 07:19:10;;;;;;;1999.90;999.90;;;;;;;8.70;100.00;94532.25;4985861;28;20267;-62
2023/04/19 07:21:37;;;;;;;1999.90;999.90;;;;;;;8.73;100.00;94554.00;4985767;28;20236;-61
2023/04/19 07:24:03;;;;;;;1999.90;999.90;;;;;;;8.78;100.00;94564.41;4985642;28;20198;-62
2023/04/19 07:26:28;;;;;;;1999.90;999.90;;;;;;;8.84;100.00;94565.50;4969779;28;20224;-62
2023/04/19 07:28:54;;;;;;;1999.90;999.90;;;;;;;8.94;100.00;94569.22;4985927;28;20296;-62
2023/04/19 07:31:20;;;;;;;1999.90;999.90;;;;;;;8.93;100.00;94573.88;4985857;28;20219;-63
2023/04/19 07:33:45;;;;;;;1999.90;999.90;;;;;;;8.81;100.00;94601.69;4986382;28;20220;-62
2023/04/19 07:36:11;;;;;;;1999.90;999.90;;;;;;;8.82;100.00;94603.22;4985864;28;20249;-63
2023/04/19 07:38:36;;;;;;;1999.90;999.90;;;;;;;8.83;100.00;94607.50;4969009;28;20207;-63
2023/04/19 07:41:02;;;;;;;1999.90;999.90;;;;;;;8.81;100.00;94618.03;4984979;28;20200;-62
2023/04/19 07:43:29;;;;;;;1999.90;999.90;;;;;;;8.88;100.00;94608.97;4985361;28;20207;-62
2023/04/19 07:45:54;;;;;;;1999.90;999.90;;;;;;;9.06;100.00;94593.94;4985348;28;20267;-65
2023/04/19 07:48:20;;;;;;;1999.90;999.90;;;;;;;9.19;100.00;94585.94;4985547;28;20210;-63
2023/04/19 07:50:45;;;;;;;1999.90;999.90;;;;;;;9.19;100.00;94607.75;4985239;28;20204;-59
2023/04/19 07:53:11;;;;;;;1999.90;999.90;;;;;;;9.35;100.00;94605.91;4985413;28;20200;-61
2023/04/19 07:55:36;;;;;;;1999.90;999.90;;;;;;;9.39;100.00;94622.97;4985346;28;20185;-61
2023/04/19 07:58:01;;;;;;;1999.90;999.90;;;;;;;9.68;100.00;94618.59;4985091;28;20248;-61
2023/04/19 08:00:28;;;;;;;1999.90;999.90;;;;;;;9.85;100.00;94628.41;4985526;28;20235;-61
2023/04/19 08:02:55;;;;;;;1999.90;999.90;;;;;;;10.20;100.00;94623.50;4969556;28;20205;-63
2023/04/19 08:05:21;;;;;;;1999.90;999.90;;;;;;;10.60;100.00;94635.97;4985513;28;20208;-61
2023/04/19 08:07:47;;;;;;;1999.90;999.90;;;;;;;10.77;100.00;94727.66;4984976;28;20197;-61
2023/04/19 08:10:13;;;;;;;1999.90;999.90;;;;;;;10.86;100.00;94824.25;4969137;28;20206;-61
2023/04/19 08:12:40;;;;;;;1999.90;999.90;;;;;;;10.77;100.00;94927.03;4985010;28;20210;-62
2023/04/19 08:15:06;;;;;;;1999.90;999.90;;;;;;;11.00;100.00;94978.94;4984712;28;20273;-60
2023/04/19 08:17:32;;;;;;;1999.90;999.90;;;;;;;11.05;100.00;95030.38;4984996;28;20225;-61
2023/04/19 08:19:57;;;;;;;1999.90;999.90;;;;;;;11.32;100.00;95050.22;4985107;28;20206;-61
2023/04/19 08:22:23;;;;;;;1999.90;999.90;;;;;;;11.51;100.00;95098.75;4985005;28;20203;-61
2023/04/19 08:24:50;;;;;;;1999.90;999.90;;;;;;;11.63;100.00;95136.47;4985094;28;20214;-61
2023/04/19 08:27:17;;;;;;;1999.90;999.90;;;;;;;11.74;100.00;95172.63;4985064;28;20208;-61
2023/04/19 08:29:42;;;;;;;1999.90;999.90;;;;;;;11.90;100.00;95197.38;4985067;28;20196;-63
2023/04/19 08:32:08;;;;;;;1999.90;999.90;;;;;;;11.84;100.00;95240.84;4985420;28;20180;-61
2023/04/19 08:34:35;;;;;;;1999.90;999.90;;;;;;;11.86;100.00;95259.59;4968893;28;20215;-61
2023/04/19 08:37:01;;;;;;;1999.90;999.90;;;;;;;11.93;100.00;95290.38;4985136;28;20216;-61
2023/04/19 08:39:26;;;;;;;1999.90;999.90;;;;;;;11.91;100.00;95311.13;4984711;28;20204;-61
2023/04/19 08:41:52;;;;;;;1999.90;999.90;;;;;;;12.04;100.00;95317.56;4968835;28;20250;-60
2023/04/19 08:44:19;;;;;;;1999.90;999.90;;;;;;;12.20;100.00;95323.19;4984695;28;20280;-62
2023/04/19 08:46:45;;;;;;;1999.90;999.90;;;;;;;12.01;100.00;95343.81;4984893;28;20210;-62
2023/04/19 08:49:11;;;;;;;1999.90;999.90;;;;;;;12.03;100.00;95357.06;4984836;28;20228;-60
2023/04/19 08:51:38;;;;;;;1999.90;999.90;;;;;;;12.20;100.00;95367.00;4987328;28;20243;-60
2023/04/19 08:54:06;;;;;;;1999.90;999.90;;;;;;;12.34;100.00;95367.53;4988940;28;20263;-61
2023/04/19 08:56:31;;;;;;;1999.90;999.90;;;;;;;12.21;100.00;95380.25;4988462;28;20213;-60
2023/04/19 08:58:57;;;;;;;1999.90;999.90;;;;;;;12.16;100.00;95399.09;4988591;28;20207;-63
2023/04/19 09:01:22;;;;;;;1999.90;999.90;;;;;;;12.05;100.00;95409.44;4988244;28;20184;-61
2023/04/19 09:03:47;;;;;;;1999.90;999.90;;;;;;;12.09;100.00;95399.97;4988710;28;20247;-60
2023/04/19 09:06:13;;;;;;;1999.90;999.90;;;;;;;12.08;100.00;95392.19;4988217;28;20201;-60
2023/04/19 09:08:39;;;;;;;1999.90;999.90;;;;;;;11.92;100.00;95383.81;4988433;28;20235;-60
2023/04/19 09:11:05;;;;;;;1999.90;999.90;;;;;;;11.81;100.00;95372.25;4988151;28;20263;-60
2023/04/19 09:13:31;;;;;;;1999.90;999.90;;;;;;;11.77;100.00;95360.56;4988622;28;20200;-60
2023/04/19 09:15:59;;;;;;;1999.90;999.90;;;;;;;11.91;100.00;95341.22;4987941;28;20258;-60
2023/04/19 09:18:25;;;;;;;1999.90;999.90;;;;;;;11.80;100.00;95329.66;4988115;28;20200;-60
2023/04/19 09:20:56;;;;;;;1999.90;999.90;;;;;;;11.84;100.00;95330.38;4988091;28;20291;-61
2023/04/19 09:23:27;;;;;;;1999.90;999.90;;;;;;;11.98;100.00;95328.19;4988447;28;20204;-61
2023/04/19 09:25:52;;;;;;;1999.90;999.90;;;;;;;12.04;100.00;95325.78;4988130;28;20201;-60
2023/04/19 09:28:18;;;;;;;1999.90;999.90;;;;;;;12.06;100.00;95323.41;4987926;28;20207;-60
2023/04/19 09:30:43;;;;;;;1999.90;999.90;;;;;;;12.14;100.00;95320.16;4988291;28;20168;-60
2023/04/19 09:33:09;;;;;;;1999.90;999.90;;;;;;;12.25;100.00;95314.50;4988081;28;20236;-60
2023/04/19 09:35:47;;;;;;;1999.90;999.90;;;;;;;12.22;100.00;95320.81;4988241;28;20208;-60
2023/04/19 09:38:13;;;;;;;1999.90;999.90;;;;;;;12.57;100.00;95309.28;4987858;28;20208;-60
2023/04/19 09:40:39;;;;;;;1999.90;999.90;;;;;;;13.05;100.00;95312.34;4987541;28;20197;-60
2023/04/19 09:43:05;;;;;;;1999.90;999.90;;;;;;;13.37;100.00;95322.69;4987531;28;20204;-59
2023/04/19 09:45:42;;;;;;;1999.90;999.90;;;;;;;13.96;100.00;95332.38;4987694;28;20283;-59
2023/04/19 09:48:08;;;;;;;1999.90;999.90;;;;;;;14.32;100.00;95349.66;4987454;28;20250;-60
2023/04/19 09:50:35;;;;;;;1999.90;999.90;;;;;;;14.81;100.00;95370.44;4987754;28;20203;-60
2023/04/19 09:53:01;;;;;;;1999.90;999.90;;;;;;;15.12;100.00;95384.56;4987334;28;20196;-60
2023/04/19 09:55:27;;;;;;;1999.90;999.90;;;;;;;15.38;100.00;95386.28;4987819;28;20215;-60
2023/04/19 09:57:53;;;;;;;1999.90;999.90;;;;;;;15.52;100.00;95394.91;4971600;28;20228;-59
2023/04/19 10:00:20;;;;;;;1999.90;999.90;;;;;;;15.84;100.00;95397.56;4987636;28;20200;-60
2023/04/19 10:02:53;;;;;;;1999.90;999.90;;;;;;;15.77;100.00;95403.25;4986965;28;20280;-60
2023/04/19 10:05:19;;;;;;;1999.90;999.90;;;;;;;15.50;100.00;95404.81;4987449;28;20206;-60
2023/04/19 10:07:46;;;;;;;1999.90;999.90;;;;;;;15.57;100.00;95405.41;4987091;28;20208;-59
2023/04/19 10:10:15;;;;;;;1999.90;999.90;;;;;;;15.81;100.00;95403.19;4986974;28;20245;-59
2023/04/19 10:12:42;;;;;;;1999.90;999.90;;;;;;;15.58;100.00;95406.94;4986928;28;20288;-57
2023/04/19 10:15:10;;;;;;;1999.90;999.90;;;;;;;15.34;100.00;95397.31;4987124;28;20196;-59
2023/04/19 10:17:35;;;;;;;1999.90;999.90;;;;;;;15.25;100.00;95399.94;4986964;28;20279;-59
2023/04/19 10:20:06;;;;;;;1999.90;999.90;;;;;;;15.25;100.00;95405.44;4986870;28;20248;-59
2023/04/19 10:22:36;;;;;;;1999.90;999.90;;;;;;;15.07;100.00;95405.13;4987234;28;20172;-57
2023/04/19 10:25:10;;;;;;;1999.90;999.90;;;;;;;15.00;100.00;95399.78;4987078;28;20242;-57
2023/04/19 10:27:36;;;;;;;1999.90;999.90;;;;;;;15.05;100.00;95396.50;4970556;28;20204;-59
2023/04/19 10:30:06;;;;;;;1999.90;999.90;;;;;;;15.00;100.00;95393.50;4986576;28;20208;-59
2023/04/19 10:32:40;;;;;;;1999.90;999.90;;;;;;;14.81;100.00;95383.38;4986950;28;20267;-59
2023/04/19 10:35:19;;;;;;;1999.90;999.90;;;;;;;14.89;100.00;95382.78;4986647;28;20208;-60
2023/04/19 10:38:09;;;;;;;1999.90;999.90;;;;;;;14.71;100.00;95382.44;4986617;28;20219;-57
2023/04/19 10:40:59;;;;;;;1999.90;999.90;;;;;;;14.77;100.00;95378.00;4986280;28;20180;-59
2023/04/19 10:43:34;;;;;;;1999.90;999.90;;;;;;;14.54;100.00;95380.13;4970587;28;20204;-59
2023/04/19 10:46:01;;;;;;;1999.90;999.90;;;;;;;14.28;100.00;95368.16;4986477;28;20206;-59
2023/04/19 10:48:32;;;;;;;1999.90;999.90;;;;;;;13.97;100.00;95374.34;4986410;28;20235;-59